sensor_id;sensor_type;location;lat;lon;timestamp;pressure;altitude;pressure_sealevel;temperature;humidity
46464;BME280;32161;48.148;-1.554;2024-01-06T00:01:16;100436.97;;;5.39;100.00
46464;BME280;32161;48.148;-1.554;2024-01-06T00:03:44;100437.59;;;5.41;100.00
46464;BME280;32161;48.148;-1.554;2024-01-06T00:06:12;100445.69;;;5.41;100.00
46464;BME280;32161;48.148;-1.554;2024-01-06T00:08:40;100447.13;;;5.37;100.00
46464;BME280;32161;48.148;-1.554;2024-01-06T00:11:07;100446.94;;;5.38;100.00
46464;BME280;32161;48.148;-1.554;2024-01-06T00:13:35;100453.16;;;5.39;100.00
46464;BME280;32161;48.148;-1.554;2024-01-06T00:16:06;100444.03;;;5.40;100.00
46464;BME280;32161;48.148;-1.554;2024-01-06T00:18:33;100454.59;;;5.42;100.00
46464;BME280;32161;48.148;-1.554;2024-01-06T00:21:01;100448.59;;;5.39;100.00
46464;BME280;32161;48.148;-1.554;2024-01-06T00:23:28;100448.38;;;5.41;100.00
46464;BME280;32161;48.148;-1.554;2024-01-06T00:25:57;100442.38;;;5.39;100.00
46464;BME280;32161;48.148;-1.554;2024-01-06T00:28:24;100440.06;;;5.36;100.00
46464;BME280;32161;48.148;-1.554;2024-01-06T00:30:52;100437.16;;;5.37;100.00
46464;BME280;32161;48.148;-1.554;2024-01-06T00:33:21;100448.38;;;5.41;100.00
46464;BME280;32161;48.148;-1.554;2024-01-06T00:35:49;100448.38;;;5.41;100.00
46464;BME280;32161;48.148;-1.554;2024-01-06T00:38:16;100452.50;;;5.37;100.00
46464;BME280;32161;48.148;-1.554;2024-01-06T00:40:44;100445.03;;;5.32;100.00
46464;BME280;32161;48.148;-1.554;2024-01-06T00:43:12;100444.63;;;5.29;100.00
46464;BME280;32161;48.148;-1.554;2024-01-06T00:45:40;100440.25;;;5.28;100.00
46464;BME280;32161;48.148;-1.554;2024-01-06T00:48:07;100443.16;;;5.26;100.00
46464;BME280;32161;48.148;-1.554;2024-01-06T00:50:36;100446.69;;;5.27;100.00
46464;BME280;32161;48.148;-1.554;2024-01-06T00:53:04;100442.31;;;5.26;100.00
46464;BME280;32161;48.148;-1.554;2024-01-06T00:55:32;100451.66;;;5.23;100.00
46464;BME280;32161;48.148;-1.554;2024-01-06T00:57:59;100448.75;;;5.25;100.00
46464;BME280;32161;48.148;-1.554;2024-01-06T01:00:27;100450.84;;;5.23;100.00
46464;BME280;32161;48.148;-1.554;2024-01-06T01:02:55;100446.25;;;5.17;100.00
46464;BME280;32161;48.148;-1.554;2024-01-06T01:05:23;100449.53;;;5.12;100.00
46464;BME280;32161;48.148;-1.554;2024-01-06T01:07:52;100465.28;;;5.08;100.00
46464;BME280;32161;48.148;-1.554;2024-01-06T01:10:19;100458.25;;;5.07;100.00
46464;BME280;32161;48.148;-1.554;2024-01-06T01:12:47;100456.75;;;5.05;100.00
46464;BME280;32161;48.148;-1.554;2024-01-06T01:15:15;100452.22;;;5.05;100.00
46464;BME280;32161;48.148;-1.554;2024-01-06T01:17:42;100465.28;;;5.08;100.00
46464;BME280;32161;48.148;-1.554;2024-01-06T01:20:11;100462.78;;;5.07;100.00
46464;BME280;32161;48.148;-1.554;2024-01-06T01:22:38;100468.16;;;5.07;100.00
46464;BME280;32161;48.148;-1.554;2024-01-06T01:25:08;100468.81;;;5.09;100.00
46464;BME280;32161;48.148;-1.554;2024-01-06T01:27:38;100467.75;;;5.10;100.00
46464;BME280;32161;48.148;-1.554;2024-01-06T01:30:07;100459.94;;;5.15;100.00
46464;BME280;32161;48.148;-1.554;2024-01-06T01:32:35;100463.88;;;5.19;100.00
46464;BME280;32161;48.148;-1.554;2024-01-06T01:35:02;100472.38;;;5.23;100.00
46464;BME280;32161;48.148;-1.554;2024-01-06T01:37:30;100472.78;;;5.26;100.00
46464;BME280;32161;48.148;-1.554;2024-01-06T01:39:58;100477.16;;;5.27;100.00
46464;BME280;32161;48.148;-1.554;2024-01-06T01:42:27;100482.34;;;5.29;100.00
46464;BME280;32161;48.148;-1.554;2024-01-06T01:44:54;100491.03;;;5.24;100.00
46464;BME280;32161;48.148;-1.554;2024-01-06T01:47:22;100484.59;;;5.25;100.00
46464;BME280;32161;48.148;-1.554;2024-01-06T01:49:49;100492.91;;;5.24;100.00
46464;BME280;32161;48.148;-1.554;2024-01-06T01:52:17;100498.91;;;5.26;100.00
46464;BME280;32161;48.148;-1.554;2024-01-06T01:54:46;100513.84;;;5.28;100.00
46464;BME280;32161;48.148;-1.554;2024-01-06T01:57:15;100500.81;;;5.32;100.00
46464;BME280;32161;48.148;-1.554;2024-01-06T01:59:44;100505.97;;;5.33;100.00
46464;BME280;32161;48.148;-1.554;2024-01-06T02:02:12;100505.59;;;5.36;100.00
46464;BME280;32161;48.148;-1.554;2024-01-06T02:04:40;100515.53;;;5.36;100.00
46464;BME280;32161;48.148;-1.554;2024-01-06T02:07:07;100523.41;;;5.37;100.00
46464;BME280;32161;48.148;-1.554;2024-01-06T02:09:35;100540.44;;;5.45;100.00
46464;BME280;32161;48.148;-1.554;2024-01-06T02:12:03;100539.16;;;5.34;100.00
46464;BME280;32161;48.148;-1.554;2024-01-06T02:14:31;100543.22;;;5.17;100.00
46464;BME280;32161;48.148;-1.554;2024-01-06T02:17:00;100552.63;;;5.34;100.00
46464;BME280;32161;48.148;-1.554;2024-01-06T02:19:28;100560.56;;;5.42;100.00
46464;BME280;32161;48.148;-1.554;2024-01-06T02:21:57;100565.78;;;5.50;100.00
46464;BME280;32161;48.148;-1.554;2024-01-06T02:24:24;100566.00;;;5.55;100.00
46464;BME280;32161;48.148;-1.554;2024-01-06T02:26:52;100560.41;;;5.63;100.00
46464;BME280;32161;48.148;-1.554;2024-01-06T02:29:19;100570.59;;;5.68;100.00
46464;BME280;32161;48.148;-1.554;2024-01-06T02:31:47;100570.84;;;5.80;100.00
46464;BME280;32161;48.148;-1.554;2024-01-06T02:34:15;100572.94;;;5.91;100.00
46464;BME280;32161;48.148;-1.554;2024-01-06T02:36:42;100573.00;;;5.98;100.00
46464;BME280;32161;48.148;-1.554;2024-01-06T02:39:11;100574.88;;;6.04;100.00
46464;BME280;32161;48.148;-1.554;2024-01-06T02:41:39;100579.03;;;6.13;100.00
46464;BME280;32161;48.148;-1.554;2024-01-06T02:44:06;100583.41;;;6.21;100.00
46464;BME280;32161;48.148;-1.554;2024-01-06T02:46:34;100585.50;;;6.25;100.00
46464;BME280;32161;48.148;-1.554;2024-01-06T02:49:02;100580.09;;;6.32;100.00
46464;BME280;32161;48.148;-1.554;2024-01-06T02:51:29;100585.09;;;6.35;100.00
46464;BME280;32161;48.148;-1.554;2024-01-06T02:53:57;100584.47;;;6.33;100.00
46464;BME280;32161;48.148;-1.554;2024-01-06T02:56:26;100585.50;;;6.32;100.00
46464;BME280;32161;48.148;-1.554;2024-01-06T02:58:53;100582.19;;;6.36;100.00
46464;BME280;32161;48.148;-1.554;2024-01-06T03:01:21;100586.53;;;6.44;100.00
46464;BME280;32161;48.148;-1.554;2024-01-06T03:03:48;100585.94;;;6.35;100.00
46464;BME280;32161;48.148;-1.554;2024-01-06T03:06:16;100592.16;;;6.36;100.00
46464;BME280;32161;48.148;-1.554;2024-01-06T03:08:43;100587.59;;;6.36;100.00
46464;BME280;32161;48.148;-1.554;2024-01-06T03:11:11;100589.66;;;6.41;100.00
46464;BME280;32161;48.148;-1.554;2024-01-06T03:13:40;100594.47;;;6.46;100.00
46464;BME280;32161;48.148;-1.554;2024-01-06T03:16:08;100601.69;;;6.45;100.00
46464;BME280;32161;48.148;-1.554;2024-01-06T03:18:35;100599.00;;;6.45;100.00
46464;BME280;32161;48.148;-1.554;2024-01-06T03:21:03;100598.59;;;6.48;100.00
46464;BME280;32161;48.148;-1.554;2024-01-06T03:23:31;100585.09;;;6.48;100.00
46464;BME280;32161;48.148;-1.554;2024-01-06T03:25:58;100590.91;;;6.45;100.00
46464;BME280;32161;48.148;-1.554;2024-01-06T03:28:32;100602.53;;;6.39;100.00
46464;BME280;32161;48.148;-1.554;2024-01-06T03:31:01;100608.34;;;6.36;100.00
46464;BME280;32161;48.148;-1.554;2024-01-06T03:33:28;100613.13;;;6.34;100.00
46464;BME280;32161;48.148;-1.554;2024-01-06T03:35:56;100618.09;;;6.37;100.00
46464;BME280;32161;48.148;-1.554;2024-01-06T03:38:23;100608.34;;;6.36;100.00
46464;BME280;32161;48.148;-1.554;2024-01-06T03:40:51;100604.59;;;6.37;100.00
46464;BME280;32161;48.148;-1.554;2024-01-06T03:43:18;100608.56;;;6.41;100.00
46464;BME280;32161;48.148;-1.554;2024-01-06T03:45:46;100603.97;;;6.42;100.00
46464;BME280;32161;48.148;-1.554;2024-01-06T03:48:15;100609.19;;;6.43;100.00
46464;BME280;32161;48.148;-1.554;2024-01-06T03:50:43;100607.53;;;6.42;100.00
46464;BME280;32161;48.148;-1.554;2024-01-06T03:53:11;100601.91;;;6.44;100.00
46464;BME280;32161;48.148;-1.554;2024-01-06T03:55:38;100614.59;;;6.43;100.00
46464;BME280;32161;48.148;-1.554;2024-01-06T03:58:06;100602.94;;;6.36;100.00
46464;BME280;32161;48.148;-1.554;2024-01-06T04:00:33;100609.59;;;6.33;100.00
46464;BME280;32161;48.148;-1.554;2024-01-06T04:03:01;100613.53;;;6.31;100.00
46464;BME280;32161;48.148;-1.554;2024-01-06T04:05:30;100612.09;;;6.35;100.00
46464;BME280;32161;48.148;-1.554;2024-01-06T04:07:58;100618.09;;;6.37;100.00
46464;BME280;32161;48.148;-1.554;2024-01-06T04:10:25;100618.75;;;6.39;100.00
46464;BME280;32161;48.148;-1.554;2024-01-06T04:12:53;100629.53;;;6.39;100.00
46464;BME280;32161;48.148;-1.554;2024-01-06T04:15:20;100628.50;;;6.40;100.00
46464;BME280;32161;48.148;-1.554;2024-01-06T04:17:49;100621.44;;;6.39;100.00
46464;BME280;32161;48.148;-1.554;2024-01-06T04:20:17;100627.03;;;6.38;100.00
46464;BME280;32161;48.148;-1.554;2024-01-06T04:22:46;100629.94;;;6.36;100.00
46464;BME280;32161;48.148;-1.554;2024-01-06T04:25:13;100640.75;;;6.36;100.00
46464;BME280;32161;48.148;-1.554;2024-01-06T04:27:41;100638.25;;;6.34;100.00
46464;BME280;32161;48.148;-1.554;2024-01-06T04:30:10;100648.84;;;6.36;100.00
46464;BME280;32161;48.148;-1.554;2024-01-06T04:32:38;100656.31;;;6.27;100.00
46464;BME280;32161;48.148;-1.554;2024-01-06T04:35:07;100665.66;;;6.31;100.00
46464;BME280;32161;48.148;-1.554;2024-01-06T04:37:34;100665.44;;;6.33;100.00
46464;BME280;32161;48.148;-1.554;2024-01-06T04:40:04;100670.66;;;6.34;100.00
46464;BME280;32161;48.148;-1.554;2024-01-06T04:42:33;100672.94;;;6.31;100.00
46464;BME280;32161;48.148;-1.554;2024-01-06T04:45:00;100674.34;;;6.20;100.00
46464;BME280;32161;48.148;-1.554;2024-01-06T04:47:28;100673.72;;;6.11;100.00
46464;BME280;32161;48.148;-1.554;2024-01-06T04:49:56;100674.72;;;6.10;100.00
46464;BME280;32161;48.148;-1.554;2024-01-06T04:52:24;100682.66;;;6.25;100.00
46464;BME280;32161;48.148;-1.554;2024-01-06T04:54:52;100698.25;;;6.30;100.00
46464;BME280;32161;48.148;-1.554;2024-01-06T04:57:21;100688.88;;;6.19;100.00
46464;BME280;32161;48.148;-1.554;2024-01-06T04:59:48;100693.59;;;6.04;100.00
46464;BME280;32161;48.148;-1.554;2024-01-06T05:02:16;100697.41;;;6.23;100.00
46464;BME280;32161;48.148;-1.554;2024-01-06T05:04:44;100695.97;;;6.27;100.00
46464;BME280;32161;48.148;-1.554;2024-01-06T05:07:11;100695.13;;;6.33;100.00
46464;BME280;32161;48.148;-1.554;2024-01-06T05:09:39;100689.56;;;6.34;100.00
46464;BME280;32161;48.148;-1.554;2024-01-06T05:12:07;100686.00;;;6.34;100.00
46464;BME280;32161;48.148;-1.554;2024-01-06T05:14:36;100683.97;;;6.43;100.00
46464;BME280;32161;48.148;-1.554;2024-01-06T05:17:04;100683.34;;;6.47;100.00
46464;BME280;32161;48.148;-1.554;2024-01-06T05:19:32;100686.50;;;6.57;100.00
46464;BME280;32161;48.148;-1.554;2024-01-06T05:22:00;100678.59;;;6.63;100.00
46464;BME280;32161;48.148;-1.554;2024-01-06T05:24:27;100689.41;;;6.69;100.00
46464;BME280;32161;48.148;-1.554;2024-01-06T05:26:55;100683.56;;;6.72;100.00
46464;BME280;32161;48.148;-1.554;2024-01-06T05:29:22;100681.09;;;6.71;100.00
46464;BME280;32161;48.148;-1.554;2024-01-06T05:31:53;100692.09;;;6.69;100.00
46464;BME280;32161;48.148;-1.554;2024-01-06T05:34:20;100691.50;;;6.80;100.00
46464;BME280;32161;48.148;-1.554;2024-01-06T05:36:48;100695.44;;;6.84;100.00
46464;BME280;32161;48.148;-1.554;2024-01-06T05:39:15;100695.63;;;6.76;100.00
46464;BME280;32161;48.148;-1.554;2024-01-06T05:41:43;100704.34;;;6.72;100.00
46464;BME280;32161;48.148;-1.554;2024-01-06T05:44:11;100697.72;;;6.74;100.00
46464;BME280;32161;48.148;-1.554;2024-01-06T05:46:41;100690.66;;;6.73;100.00
46464;BME280;32161;48.148;-1.554;2024-01-06T05:49:10;100700.22;;;6.69;100.00
46464;BME280;32161;48.148;-1.554;2024-01-06T05:51:37;100701.22;;;6.68;100.00
46464;BME280;32161;48.148;-1.554;2024-01-06T05:54:11;100702.28;;;6.67;100.00
46464;BME280;32161;48.148;-1.554;2024-01-06T05:56:38;100709.94;;;6.64;100.00
46464;BME280;32161;48.148;-1.554;2024-01-06T05:59:06;100701.25;;;6.62;100.00
46464;BME280;32161;48.148;-1.554;2024-01-06T06:01:33;100693.13;;;6.62;100.00
46464;BME280;32161;48.148;-1.554;2024-01-06T06:04:01;100686.88;;;6.61;100.00
46464;BME280;32161;48.148;-1.554;2024-01-06T06:06:30;100684.00;;;6.63;100.00
46464;BME280;32161;48.148;-1.554;2024-01-06T06:08:59;100687.94;;;6.67;100.00
46464;BME280;32161;48.148;-1.554;2024-01-06T06:11:26;100689.81;;;6.66;100.00
46464;BME280;32161;48.148;-1.554;2024-01-06T06:13:54;100695.41;;;6.65;100.00
46464;BME280;32161;48.148;-1.554;2024-01-06T06:16:21;100698.53;;;6.62;100.00
46464;BME280;32161;48.148;-1.554;2024-01-06T06:18:49;100696.03;;;6.60;100.00
46464;BME280;32161;48.148;-1.554;2024-01-06T06:21:16;100718.03;;;6.57;100.00
46464;BME280;32161;48.148;-1.554;2024-01-06T06:23:45;100706.84;;;6.53;100.00
46464;BME280;32161;48.148;-1.554;2024-01-06T06:26:13;100722.41;;;6.51;100.00
46464;BME280;32161;48.148;-1.554;2024-01-06T06:28:41;100719.28;;;6.48;100.00
46464;BME280;32161;48.148;-1.554;2024-01-06T06:31:08;100727.59;;;6.46;100.00
46464;BME280;32161;48.148;-1.554;2024-01-06T06:33:36;100732.56;;;6.43;100.00
46464;BME280;32161;48.148;-1.554;2024-01-06T06:36:04;100733.78;;;6.40;100.00
46464;BME280;32161;48.148;-1.554;2024-01-06T06:38:32;100740.63;;;6.36;100.00
46464;BME280;32161;48.148;-1.554;2024-01-06T06:41:00;100758.28;;;6.32;100.00
46464;BME280;32161;48.148;-1.554;2024-01-06T06:43:28;100758.06;;;6.27;100.00
46464;BME280;32161;48.148;-1.554;2024-01-06T06:45:56;100749.72;;;6.22;100.00
46464;BME280;32161;48.148;-1.554;2024-01-06T06:48:24;100767.78;;;6.21;100.00
46464;BME280;32161;48.148;-1.554;2024-01-06T06:50:51;100777.53;;;6.16;100.00
46464;BME280;32161;48.148;-1.554;2024-01-06T06:53:19;100773.94;;;6.08;100.00
46464;BME280;32161;48.148;-1.554;2024-01-06T06:55:47;100786.41;;;6.09;100.00
46464;BME280;32161;48.148;-1.554;2024-01-06T06:58:16;100790.94;;;6.02;100.00
46464;BME280;32161;48.148;-1.554;2024-01-06T07:00:43;100800.09;;;6.08;100.00
46464;BME280;32161;48.148;-1.554;2024-01-06T07:03:11;100800.28;;;6.06;100.00
46464;BME280;32161;48.148;-1.554;2024-01-06T07:05:40;100802.97;;;6.06;100.00
46464;BME280;32161;48.148;-1.554;2024-01-06T07:08:07;100822.13;;;6.11;100.00
46464;BME280;32161;48.148;-1.554;2024-01-06T07:10:35;100827.53;;;6.11;100.00
46464;BME280;32161;48.148;-1.554;2024-01-06T07:13:03;100826.66;;;6.11;100.00
46464;BME280;32161;48.148;-1.554;2024-01-06T07:15:33;100841.63;;;6.14;100.00
46464;BME280;32161;48.148;-1.554;2024-01-06T07:18:00;100838.34;;;6.18;100.00
46464;BME280;32161;48.148;-1.554;2024-01-06T07:20:28;100835.06;;;6.23;100.00
46464;BME280;32161;48.148;-1.554;2024-01-06T07:22:55;100832.97;;;6.25;100.00
46464;BME280;32161;48.148;-1.554;2024-01-06T07:25:23;100833.81;;;6.25;100.00
46464;BME280;32161;48.148;-1.554;2024-01-06T07:27:50;100839.47;;;6.30;100.00
46464;BME280;32161;48.148;-1.554;2024-01-06T07:30:18;100840.28;;;6.31;100.00
46464;BME280;32161;48.148;-1.554;2024-01-06T07:32:47;100840.28;;;6.31;100.00
46464;BME280;32161;48.148;-1.554;2024-01-06T07:35:16;100841.94;;;6.32;100.00
46464;BME280;32161;48.148;-1.554;2024-01-06T07:37:44;100849.22;;;6.31;100.00
46464;BME280;32161;48.148;-1.554;2024-01-06T07:40:12;100851.09;;;6.31;100.00
46464;BME280;32161;48.148;-1.554;2024-01-06T07:42:42;100853.34;;;6.27;100.00
46464;BME280;32161;48.148;-1.554;2024-01-06T07:45:10;100854.78;;;6.23;100.00
46464;BME280;32161;48.148;-1.554;2024-01-06T07:47:39;100854.13;;;6.21;100.00
46464;BME280;32161;48.148;-1.554;2024-01-06T07:50:09;100851.41;;;6.15;100.00
46464;BME280;32161;48.148;-1.554;2024-01-06T07:52:36;100863.63;;;6.10;100.00
46464;BME280;32161;48.148;-1.554;2024-01-06T07:55:04;100862.75;;;6.03;100.00
46464;BME280;32161;48.148;-1.554;2024-01-06T07:57:32;100870.59;;;5.98;100.00
46464;BME280;32161;48.148;-1.554;2024-01-06T08:00:00;100869.53;;;5.93;100.00
46464;BME280;32161;48.148;-1.554;2024-01-06T08:02:28;100874.25;;;5.91;100.00
46464;BME280;32161;48.148;-1.554;2024-01-06T08:04:55;100867.78;;;5.85;100.00
46464;BME280;32161;48.148;-1.554;2024-01-06T08:07:24;100879.19;;;5.80;100.00
46464;BME280;32161;48.148;-1.554;2024-01-06T08:09:52;100878.53;;;5.78;100.00
46464;BME280;32161;48.148;-1.554;2024-01-06T08:12:19;100889.75;;;5.82;100.00
46464;BME280;32161;48.148;-1.554;2024-01-06T08:14:47;100889.09;;;5.80;100.00
46464;BME280;32161;48.148;-1.554;2024-01-06T08:17:15;100894.63;;;5.72;100.00
46464;BME280;32161;48.148;-1.554;2024-01-06T08:19:42;100897.34;;;5.72;100.00
46464;BME280;32161;48.148;-1.554;2024-01-06T08:22:12;100911.84;;;5.71;100.00
46464;BME280;32161;48.148;-1.554;2024-01-06T08:24:41;100910.66;;;5.73;100.00
46464;BME280;32161;48.148;-1.554;2024-01-06T08:27:09;100910.66;;;5.73;100.00
46464;BME280;32161;48.148;-1.554;2024-01-06T08:29:36;100915.59;;;5.70;100.00
46464;BME280;32161;48.148;-1.554;2024-01-06T08:32:05;100925.34;;;5.71;100.00
46464;BME280;32161;48.148;-1.554;2024-01-06T08:34:32;100927.22;;;5.70;100.00
46464;BME280;32161;48.148;-1.554;2024-01-06T08:37:00;100928.81;;;5.64;100.00
46464;BME280;32161;48.148;-1.554;2024-01-06T08:39:30;100930.88;;;5.62;100.00
46464;BME280;32161;48.148;-1.554;2024-01-06T08:41:59;100924.81;;;5.60;100.00
46464;BME280;32161;48.148;-1.554;2024-01-06T08:44:26;100934.97;;;5.58;100.00
46464;BME280;32161;48.148;-1.554;2024-01-06T08:46:54;100937.03;;;5.56;100.00
46464;BME280;32161;48.148;-1.554;2024-01-06T08:49:22;100944.75;;;5.59;100.00
46464;BME280;32161;48.148;-1.554;2024-01-06T08:51:50;100943.31;;;5.63;100.00
46464;BME280;32161;48.148;-1.554;2024-01-06T08:54:18;100947.06;;;5.62;100.00
46464;BME280;32161;48.148;-1.554;2024-01-06T08:56:45;100933.81;;;5.68;100.00
46464;BME280;32161;48.148;-1.554;2024-01-06T08:59:14;100946.25;;;5.69;100.00
46464;BME280;32161;48.148;-1.554;2024-01-06T09:01:42;100945.88;;;5.72;100.00
46464;BME280;32161;48.148;-1.554;2024-01-06T09:04:09;100950.91;;;5.75;100.00
46464;BME280;32161;48.148;-1.554;2024-01-06T09:06:39;100950.50;;;5.78;100.00
46464;BME280;32161;48.148;-1.554;2024-01-06T09:09:07;100961.94;;;5.80;100.00
46464;BME280;32161;48.148;-1.554;2024-01-06T09:11:36;100964.91;;;5.85;100.00
46464;BME280;32161;48.148;-1.554;2024-01-06T09:14:03;100977.59;;;5.91;100.00
46464;BME280;32161;48.148;-1.554;2024-01-06T09:16:32;100986.81;;;5.97;100.00
46464;BME280;32161;48.148;-1.554;2024-01-06T09:19:00;100987.28;;;6.00;100.00
46464;BME280;32161;48.148;-1.554;2024-01-06T09:21:27;100996.44;;;6.06;100.00
46464;BME280;32161;48.148;-1.554;2024-01-06T09:23:55;101006.03;;;6.08;100.00
46464;BME280;32161;48.148;-1.554;2024-01-06T09:26:22;101005.44;;;6.13;100.00
46464;BME280;32161;48.148;-1.554;2024-01-06T09:28:51;101012.31;;;6.16;100.00
46464;BME280;32161;48.148;-1.554;2024-01-06T09:31:18;101013.22;;;6.23;100.00
46464;BME280;32161;48.148;-1.554;2024-01-06T09:33:47;101019.03;;;6.26;100.00
46464;BME280;32161;48.148;-1.554;2024-01-06T09:36:15;101022.75;;;6.25;100.00
46464;BME280;32161;48.148;-1.554;2024-01-06T09:38:44;101033.84;;;6.30;100.00
46464;BME280;32161;48.148;-1.554;2024-01-06T09:41:11;101022.63;;;6.33;100.00
46464;BME280;32161;48.148;-1.554;2024-01-06T09:43:39;101035.56;;;6.38;100.00
46464;BME280;32161;48.148;-1.554;2024-01-06T09:46:15;101033.19;;;6.56;100.00
46464;BME280;32161;48.148;-1.554;2024-01-06T09:48:47;101037.38;;;6.59;100.00
46464;BME280;32161;48.148;-1.554;2024-01-06T09:51:19;101037.59;;;6.64;100.00
46464;BME280;32161;48.148;-1.554;2024-01-06T09:53:58;101053.53;;;6.87;100.00
46464;BME280;32161;48.148;-1.554;2024-01-06T09:56:27;101043.00;;;6.64;100.00
46464;BME280;32161;48.148;-1.554;2024-01-06T09:58:56;101037.69;;;6.77;100.00
46464;BME280;32161;48.148;-1.554;2024-01-06T10:01:23;101033.50;;;7.09;100.00
46464;BME280;32161;48.148;-1.554;2024-01-06T10:03:52;101034.56;;;7.08;100.00
46464;BME280;32161;48.148;-1.554;2024-01-06T10:06:20;101032.47;;;7.10;100.00
46464;BME280;32161;48.148;-1.554;2024-01-06T10:08:49;101038.47;;;7.06;100.00
46464;BME280;32161;48.148;-1.554;2024-01-06T10:11:18;101038.09;;;7.09;100.00
46464;BME280;32161;48.148;-1.554;2024-01-06T10:13:49;101047.03;;;7.09;100.00
46464;BME280;32161;48.148;-1.554;2024-01-06T10:16:17;101050.78;;;7.08;100.00
46464;BME280;32161;48.148;-1.554;2024-01-06T10:18:45;101049.78;;;7.16;100.00
46464;BME280;32161;48.148;-1.554;2024-01-06T10:21:14;101051.66;;;7.16;100.00
46464;BME280;32161;48.148;-1.554;2024-01-06T10:23:43;101052.91;;;7.26;100.00
46464;BME280;32161;48.148;-1.554;2024-01-06T10:26:13;101056.66;;;7.25;100.00
46464;BME280;32161;48.148;-1.554;2024-01-06T10:28:41;101059.41;;;7.32;100.00
46464;BME280;32161;48.148;-1.554;2024-01-06T10:31:09;101049.06;;;7.42;100.00
46464;BME280;32161;48.148;-1.554;2024-01-06T10:33:36;101052.38;;;7.44;100.00
46464;BME280;32161;48.148;-1.554;2024-01-06T10:36:06;101054.47;;;7.42;100.00
46464;BME280;32161;48.148;-1.554;2024-01-06T10:38:37;101051.97;;;7.47;100.00
46464;BME280;32161;48.148;-1.554;2024-01-06T10:41:05;101059.50;;;7.52;100.00
46464;BME280;32161;48.148;-1.554;2024-01-06T10:43:36;101065.72;;;7.52;100.00
46464;BME280;32161;48.148;-1.554;2024-01-06T10:46:07;101053.69;;;7.55;100.00
46464;BME280;32161;48.148;-1.554;2024-01-06T10:48:38;101059.97;;;7.69;100.00
46464;BME280;32161;48.148;-1.554;2024-01-06T10:51:09;101063.09;;;7.72;100.00
46464;BME280;32161;48.148;-1.554;2024-01-06T10:53:41;101051.38;;;7.52;100.00
46464;BME280;32161;48.148;-1.554;2024-01-06T10:56:09;101051.34;;;7.45;100.00
46464;BME280;32161;48.148;-1.554;2024-01-06T10:58:38;101053.69;;;7.55;100.00
46464;BME280;32161;48.148;-1.554;2024-01-06T11:01:09;101064.31;;;7.63;100.00
46464;BME280;32161;48.148;-1.554;2024-01-06T11:03:38;101057.66;;;7.72;100.00
46464;BME280;32161;48.148;-1.554;2024-01-06T11:06:07;101061.06;;;7.94;100.00
46464;BME280;32161;48.148;-1.554;2024-01-06T11:08:46;101060.41;;;7.79;100.00
46464;BME280;32161;48.148;-1.554;2024-01-06T11:11:16;101056.66;;;7.80;100.00
46464;BME280;32161;48.148;-1.554;2024-01-06T11:13:46;101060.19;;;7.74;100.00
46464;BME280;32161;48.148;-1.554;2024-01-06T11:16:34;101053.78;;;7.88;100.00
46464;BME280;32161;48.148;-1.554;2024-01-06T11:19:02;101052.09;;;7.87;100.00
46464;BME280;32161;48.148;-1.554;2024-01-06T11:21:34;101049.81;;;7.91;100.00
46464;BME280;32161;48.148;-1.554;2024-01-06T11:24:19;101049.81;;;7.91;100.00
46464;BME280;32161;48.148;-1.554;2024-01-06T11:26:52;101043.78;;;8.02;100.00
46464;BME280;32161;48.148;-1.554;2024-01-06T11:29:20;101047.34;;;8.09;100.00
46464;BME280;32161;48.148;-1.554;2024-01-06T11:32:34;101062.13;;;8.00;100.00
46464;BME280;32161;48.148;-1.554;2024-01-06T11:35:10;101057.97;;;7.97;100.00
46464;BME280;32161;48.148;-1.554;2024-01-06T11:37:53;101053.78;;;7.95;100.00
46464;BME280;32161;48.148;-1.554;2024-01-06T11:40:30;101046.47;;;7.95;100.00
46464;BME280;32161;48.148;-1.554;2024-01-06T11:43:03;101054.59;;;7.82;100.00
46464;BME280;32161;48.148;-1.554;2024-01-06T11:45:41;101042.91;;;7.75;100.00
46464;BME280;32161;48.148;-1.554;2024-01-06T11:48:11;101046.03;;;7.65;100.00
46464;BME280;32161;48.148;-1.554;2024-01-06T11:50:40;101039.38;;;7.88;100.00
46464;BME280;32161;48.148;-1.554;2024-01-06T11:53:08;101041.31;;;8.00;100.00
46464;BME280;32161;48.148;-1.554;2024-01-06T11:55:40;101045.47;;;8.03;100.00
46464;BME280;32161;48.148;-1.554;2024-01-06T11:58:08;101049.22;;;8.08;100.00
46464;BME280;32161;48.148;-1.554;2024-01-06T12:00:36;101049.44;;;8.00;100.00
46464;BME280;32161;48.148;-1.554;2024-01-06T12:03:05;101037.97;;;7.98;100.00
46464;BME280;32161;48.148;-1.554;2024-01-06T12:05:32;101033.81;;;8.09;100.00
46464;BME280;32161;48.148;-1.554;2024-01-06T12:08:02;101039.00;;;8.11;100.00
46464;BME280;32161;48.148;-1.554;2024-01-06T12:10:32;101033.16;;;8.07;100.00
46464;BME280;32161;48.148;-1.554;2024-01-06T12:13:03;101042.34;;;8.06;100.00
46464;BME280;32161;48.148;-1.554;2024-01-06T12:15:32;101047.78;;;8.13;100.00
46464;BME280;32161;48.148;-1.554;2024-01-06T12:18:04;101050.28;;;8.21;100.00
46464;BME280;32161;48.148;-1.554;2024-01-06T12:20:32;101046.94;;;8.12;100.00
46464;BME280;32161;48.148;-1.554;2024-01-06T12:22:59;101034.47;;;8.11;100.00
46464;BME280;32161;48.148;-1.554;2024-01-06T12:25:27;101040.25;;;8.01;100.00
46464;BME280;32161;48.148;-1.554;2024-01-06T12:28:03;101038.19;;;8.17;100.00
46464;BME280;32161;48.148;-1.554;2024-01-06T12:30:33;101036.94;;;8.26;100.00
46464;BME280;32161;48.148;-1.554;2024-01-06T12:33:03;101036.56;;;8.42;100.00
46464;BME280;32161;48.148;-1.554;2024-01-06T12:35:31;101031.75;;;8.44;100.00
46464;BME280;32161;48.148;-1.554;2024-01-06T12:37:59;101032.38;;;8.26;100.00
46464;BME280;32161;48.148;-1.554;2024-01-06T12:40:31;101037.38;;;8.23;100.00
46464;BME280;32161;48.148;-1.554;2024-01-06T12:42:59;101033.66;;;8.50;100.00
46464;BME280;32161;48.148;-1.554;2024-01-06T12:45:31;101037.81;;;8.46;100.00
46464;BME280;32161;48.148;-1.554;2024-01-06T12:48:00;101032.81;;;8.50;100.00